Time;durP1;ratioP1;P1;durP2;ratioP2;P2;SDS_P1;SDS_P2;PMS_P1;PMS_P2;Temp;Humidity;BMP_temperature;BMP_pressure;BME280_temperature;BME280_humidity;BME280_pressure;Samples;Min_cycle;Max_cycle;Signal;HPM_P1;HPM_P2
2024/03/23 06:41:43;;;;;;;7.00;2.28;;;;;;;;;;10677999;27;20489;-83
2024/03/23 06:46:45;;;;;;;3.10;1.73;;;;;;;;;;10682936;27;20031;-83
2024/03/23 06:51:46;;;;;;;6.35;2.47;;;;;;;;;;10684880;27;20038;-84
2024/03/23 06:56:49;;;;;;;6.68;2.78;;;;;;;;;;10680374;27;20460;-84
2024/03/23 07:01:50;;;;;;;6.53;2.03;;;;;;;;;;10681114;27;20029;-84
2024/03/23 07:06:51;;;;;;;4.53;2.15;;;;;;;;;;10682054;27;20031;-84
2024/03/23 07:11:54;;;;;;;3.88;1.58;;;;;;;;;;10691522;27;20038;-83
2024/03/23 07:16:55;;;;;;;5.63;2.47;;;;;;;;;;10690548;27;20062;-84
2024/03/23 07:22:21;;;;;;;6.97;2.45;;;;;;;;;;10679261;27;20045;-84
2024/03/23 07:27:23;;;;;;;3.53;1.55;;;;;;;;;;10676483;27;20035;-84
2024/03/23 07:32:26;;;;;;;4.38;1.70;;;;;;;;;;10673633;27;20546;-84
2024/03/23 07:37:27;;;;;;;3.47;1.63;;;;;;;;;;10673373;27;20106;-84
2024/03/23 07:42:29;;;;;;;4.63;2.15;;;;;;;;;;10677367;27;20050;-84
2024/03/23 07:47:33;;;;;;;6.07;2.47;;;;;;;;;;10679823;27;20031;-85
2024/03/23 07:52:34;;;;;;;6.18;2.80;;;;;;;;;;10650945;27;20035;-85
2024/03/23 07:57:35;;;;;;;8.30;3.10;;;;;;;;;;10644688;27;20033;-84
2024/03/23 08:02:36;;;;;;;5.88;1.98;;;;;;;;;;10641778;27;20034;-83
2024/03/23 08:07:37;;;;;;;5.65;1.80;;;;;;;;;;10643237;27;20084;-84
2024/03/23 08:12:38;;;;;;;;;;;;;;;;;;10645196;27;20042;-83
2024/03/23 08:17:39;;;;;;;5.78;2.13;;;;;;;;;;10652302;27;20014;-82
2024/03/23 08:22:40;;;;;;;6.65;1.85;;;;;;;;;;10654790;27;20043;-84
2024/03/23 08:27:41;;;;;;;6.60;2.63;;;;;;;;;;10638698;27;20080;-83
2024/03/23 08:32:43;;;;;;;6.72;2.30;;;;;;;;;;10636667;27;20023;-83
2024/03/23 08:37:50;;;;;;;6.70;2.53;;;;;;;;;;10637830;27;20098;-84
2024/03/23 08:42:51;;;;;;;5.60;2.15;;;;;;;;;;10639413;27;20023;-80
2024/03/23 08:47:58;;;;;;;4.43;1.90;;;;;;;;;;10621396;27;20062;-82
2024/03/23 08:53:24;;;;;;;3.80;1.40;;;;;;;;;;10635267;27;20076;-82
2024/03/23 08:58:26;;;;;;;8.15;2.80;;;;;;;;;;10640203;27;20031;-83
2024/03/23 09:03:48;;;;;;;6.40;1.95;;;;;;;;;;10636424;27;20490;-82
2024/03/23 09:08:49;;;;;;;5.45;1.98;;;;;;;;;;10638237;27;20035;-83
2024/03/23 09:13:51;;;;;;;6.90;1.88;;;;;;;;;;10634713;27;20122;-80
2024/03/23 09:18:52;;;;;;;6.22;2.40;;;;;;;;;;10620451;27;20399;-82
2024/03/23 09:23:53;;;;;;;6.40;2.38;;;;;;;;;;10637155;27;20031;-82
2024/03/23 09:29:05;;;;;;;7.47;2.47;;;;;;;;;;10636805;27;20503;-83
2024/03/23 09:34:08;;;;;;;4.10;1.95;;;;;;;;;;10642352;27;20023;-84
2024/03/23 09:39:09;;;;;;;5.75;2.38;;;;;;;;;;10635578;27;20047;-83
2024/03/23 09:44:31;;;;;;;3.90;1.42;;;;;;;;;;10635475;27;20107;-85
2024/03/23 09:49:49;;;;;;;3.63;1.50;;;;;;;;;;10635886;27;20023;-85
2024/03/23 09:54:50;;;;;;;4.90;1.60;;;;;;;;;;10633909;27;20054;-82
2024/03/23 09:59:51;;;;;;;4.78;1.42;;;;;;;;;;10633195;27;20092;-81
2024/03/23 10:04:52;;;;;;;6.55;1.75;;;;;;;;;;10632305;27;20169;-81
2024/03/23 10:09:53;;;;;;;4.22;1.30;;;;;;;;;;10664718;27;20402;-81
2024/03/23 10:14:54;;;;;;;6.55;1.70;;;;;;;;;;10662978;27;20495;-82
2024/03/23 10:19:57;;;;;;;5.38;1.48;;;;;;;;;;10637645;27;20054;-84
2024/03/23 10:25:07;;;;;;;6.13;1.70;;;;;;;;;;10638204;27;20052;-83
2024/03/23 10:30:09;;;;;;;;;;;;;;;;;;10633847;27;20019;-83
2024/03/23 10:35:16;;;;;;;5.15;1.48;;;;;;;;;;10633955;27;19908;-83
2024/03/23 10:40:18;;;;;;;4.68;1.65;;;;;;;;;;10640264;28;20097;-83
2024/03/23 10:45:19;;;;;;;6.95;1.90;;;;;;;;;;10635218;28;20107;-83
2024/03/23 10:50:20;;;;;;;4.25;1.55;;;;;;;;;;10636300;28;20515;-83
2024/03/23 10:55:23;;;;;;;5.50;1.75;;;;;;;;;;10635931;28;20474;-83
2024/03/23 11:00:25;;;;;;;4.97;1.42;;;;;;;;;;10634765;28;20390;-83
2024/03/23 11:05:30;;;;;;;4.70;1.38;;;;;;;;;;10638783;28;20094;-83
2024/03/23 11:10:32;;;;;;;3.60;1.40;;;;;;;;;;10639212;28;20073;-83
2024/03/23 11:15:33;;;;;;;5.30;1.50;;;;;;;;;;10642036;27;20435;-83
2024/03/23 11:20:35;;;;;;;4.22;1.30;;;;;;;;;;10643343;28;20027;-83
2024/03/23 11:25:36;;;;;;;4.03;1.20;;;;;;;;;;10648546;27;20039;-83
2024/03/23 11:30:40;;;;;;;2.65;1.10;;;;;;;;;;10673238;27;20098;-83
2024/03/23 11:35:42;;;;;;;3.33;1.15;;;;;;;;;;10654956;27;20019;-84
2024/03/23 11:40:44;;;;;;;3.42;1.30;;;;;;;;;;10656047;27;20058;-84
2024/03/23 11:45:46;;;;;;;2.67;0.98;;;;;;;;;;10650096;27;20106;-85
2024/03/23 11:50:47;;;;;;;4.03;1.50;;;;;;;;;;10644256;27;20027;-82
2024/03/23 11:55:55;;;;;;;4.88;2.00;;;;;;;;;;10644787;27;20030;-82
2024/03/23 12:01:03;;;;;;;4.20;1.17;;;;;;;;;;10642105;27;20425;-82
2024/03/23 12:06:05;;;;;;;4.75;1.95;;;;;;;;;;10638781;27;20019;-83
2024/03/23 12:11:10;;;;;;;4.15;1.70;;;;;;;;;;10640076;27;20023;-83
2024/03/23 12:16:12;;;;;;;4.68;1.48;;;;;;;;;;10637737;27;20034;-82
2024/03/23 12:21:13;;;;;;;6.50;2.22;;;;;;;;;;10643228;27;20016;-82
2024/03/23 12:26:18;;;;;;;3.20;1.33;;;;;;;;;;10638930;27;20027;-82
2024/03/23 12:31:19;;;;;;;2.60;1.08;;;;;;;;;;10635700;27;20023;-83
2024/03/23 12:36:20;;;;;;;4.00;1.90;;;;;;;;;;10637788;27;20023;-83
2024/03/23 12:41:21;;;;;;;3.33;1.20;;;;;;;;;;10642739;27;20115;-80
2024/03/23 12:46:23;;;;;;;3.35;1.27;;;;;;;;;;10640431;27;20038;-80
2024/03/23 12:51:24;;;;;;;3.08;1.00;;;;;;;;;;10636552;27;20023;-79
2024/03/23 12:56:25;;;;;;;3.30;1.10;;;;;;;;;;10634958;27;20026;-82
2024/03/23 13:01:26;;;;;;;3.30;1.20;;;;;;;;;;10643345;27;20051;-80
2024/03/23 13:06:34;;;;;;;3.83;1.45;;;;;;;;;;10662689;27;20086;-81
2024/03/23 13:11:35;;;;;;;3.83;1.27;;;;;;;;;;10662683;27;20023;-81
2024/03/23 13:16:39;;;;;;;;;;;;;;;;;;10656073;27;20057;-81
2024/03/23 13:21:40;;;;;;;2.97;1.20;;;;;;;;;;10636313;27;19921;-82
2024/03/23 13:26:43;;;;;;;3.55;1.75;;;;;;;;;;10637594;27;20027;-82
2024/03/23 13:31:47;;;;;;;2.35;1.10;;;;;;;;;;10634231;27;20023;-82
2024/03/23 13:36:50;;;;;;;3.58;1.30;;;;;;;;;;10635547;27;20026;-82
2024/03/23 13:41:51;;;;;;;4.13;1.50;;;;;;;;;;10638333;27;20095;-85
2024/03/23 13:46:52;;;;;;;;;;;;;;;;;;10633886;27;20030;-86
2024/03/23 13:52:22;;;;;;;4.00;2.15;;;;;;;;;;10632721;27;19907;-86
2024/03/23 13:57:52;;;;;;;2.78;1.10;;;;;;;;;;10649219;27;20035;-83
2024/03/23 14:02:53;;;;;;;2.38;1.17;;;;;;;;;;10675737;27;20015;-83
2024/03/23 14:07:54;;;;;;;;;;;;;;;;;;10649563;27;20027;-86
2024/03/23 14:13:03;;;;;;;5.65;1.50;;;;;;;;;;10639153;27;20351;-86
2024/03/23 14:18:04;;;;;;;2.80;1.25;;;;;;;;;;10534179;22;20045;-80
2024/03/23 14:23:06;;;;;;;3.33;1.15;;;;;;;;;;10461401;28;20029;-80
2024/03/23 14:28:13;;;;;;;3.78;1.55;;;;;;;;;;10461435;28;20077;-80
2024/03/23 14:33:14;;;;;;;3.50;1.13;;;;;;;;;;10463650;28;20032;-81
2024/03/23 14:38:15;;;;;;;;;;;;;;;;;;10463396;28;20085;-80
2024/03/23 14:43:17;;;;;;;5.93;1.38;;;;;;;;;;10460541;28;19904;-80
2024/03/23 14:48:18;;;;;;;2.72;0.90;;;;;;;;;;10462440;28;20021;-81
2024/03/23 14:53:19;;;;;;;;;;;;;;;;;;10460732;28;20032;-81
2024/03/23 14:58:20;;;;;;;2.92;1.00;;;;;;;;;;10461273;28;19905;-82
2024/03/23 15:03:21;;;;;;;;;;;;;;;;;;10470780;28;20025;-79
2024/03/23 15:08:22;;;;;;;4.55;1.08;;;;;;;;;;10476059;28;19913;-79
2024/03/23 15:13:24;;;;;;;2.60;0.85;;;;;;;;;;10469450;28;20388;-80
2024/03/23 15:18:29;;;;;;;3.42;1.10;;;;;;;;;;10466136;28;20115;-80
2024/03/23 15:23:30;;;;;;;2.78;1.02;;;;;;;;;;10467189;28;20107;-81
2024/03/23 15:28:43;;;;;;;;;;;;;;;;;;10467711;28;20035;-80
2024/03/23 15:33:44;;;;;;;3.38;0.88;;;;;;;;;;10466861;28;20337;-80
2024/03/23 15:38:45;;;;;;;;;;;;;;;;;;10469244;28;20084;-80
2024/03/23 15:43:46;;;;;;;2.97;0.90;;;;;;;;;;10468533;28;19904;-80
2024/03/23 15:48:47;;;;;;;;;;;;;;;;;;10467425;28;20120;-81
2024/03/23 15:53:52;;;;;;;2.88;0.98;;;;;;;;;;10472347;28;19904;-81
2024/03/23 15:58:53;;;;;;;3.40;1.02;;;;;;;;;;10470095;28;20021;-81
2024/03/23 16:03:54;;;;;;;;;;;;;;;;;;10469022;28;20112;-81
2024/03/23 16:08:55;;;;;;;3.78;1.08;;;;;;;;;;10466781;28;19947;-80
2024/03/23 16:13:56;;;;;;;;;;;;;;;;;;10466328;28;20078;-80
2024/03/23 16:18:57;;;;;;;3.28;1.13;;;;;;;;;;10465473;28;20007;-81
2024/03/23 16:23:58;;;;;;;;;;;;;;;;;;10468833;28;20029;-80
2024/03/23 16:28:59;;;;;;;3.75;1.27;;;;;;;;;;10473242;28;19909;-79
2024/03/23 16:34:00;;;;;;;3.60;1.10;;;;;;;;;;10471406;28;20146;-81
2024/03/23 16:39:01;;;;;;;;;;;;;;;;;;10465078;28;20523;-81
2024/03/23 16:44:02;;;;;;;2.13;1.00;;;;;;;;;;10464225;28;19926;-80
2024/03/23 16:49:03;;;;;;;;;;;;;;;;;;10466923;28;20496;-80
2024/03/23 16:54:04;;;;;;;3.17;1.05;;;;;;;;;;10476443;28;19995;-79
2024/03/23 16:59:05;;;;;;;1.40;0.73;;;;;;;;;;10467503;28;20025;-80
2024/03/23 17:04:06;;;;;;;;;;;;;;;;;;10471463;28;20524;-80
2024/03/23 17:09:09;;;;;;;2.80;1.15;;;;;;;;;;10497391;28;19912;-80
2024/03/23 17:14:12;;;;;;;1.55;0.70;;;;;;;;;;10462912;28;20086;-80
2024/03/23 17:19:13;;;;;;;2.05;0.80;;;;;;;;;;10463176;28;20044;-80
2024/03/23 17:24:14;;;;;;;1.40;0.60;;;;;;;;;;10462244;28;20108;-80
2024/03/23 17:29:15;;;;;;;;;;;;;;;;;;10463188;28;20032;-79
2024/03/23 17:34:16;;;;;;;1.90;0.80;;;;;;;;;;10461946;28;19904;-81
2024/03/23 17:39:17;;;;;;;;;;;;;;;;;;10466476;28;20112;-81
2024/03/23 17:44:18;;;;;;;1.42;0.75;;;;;;;;;;10469690;28;19905;-80
2024/03/23 17:49:19;;;;;;;;;;;;;;;;;;10473648;28;20131;-80
2024/03/23 17:54:20;;;;;;;2.13;0.77;;;;;;;;;;10463027;28;19940;-82
2024/03/23 17:59:21;;;;;;;1.05;0.75;;;;;;;;;;10464299;28;20091;-80
2024/03/23 18:04:22;;;;;;;1.73;0.80;;;;;;;;;;10460193;28;20090;-80
2024/03/23 18:09:23;;;;;;;1.83;0.70;;;;;;;;;;10461051;28;20036;-80
2024/03/23 18:14:24;;;;;;;1.45;0.65;;;;;;;;;;10460273;28;20032;-81
2024/03/23 18:19:25;;;;;;;1.95;0.75;;;;;;;;;;10460158;28;20091;-81
2024/03/23 18:24:26;;;;;;;1.92;0.80;;;;;;;;;;10460411;28;20610;-80
2024/03/23 18:29:28;;;;;;;2.05;0.90;;;;;;;;;;10461324;28;20033;-80
2024/03/23 18:34:29;;;;;;;1.98;0.70;;;;;;;;;;10461217;28;20108;-80
2024/03/23 18:39:30;;;;;;;2.72;0.90;;;;;;;;;;10459191;28;20025;-80
2024/03/23 18:44:31;;;;;;;1.95;0.95;;;;;;;;;;10460444;28;20025;-81
2024/03/23 18:49:32;;;;;;;2.47;1.27;;;;;;;;;;10461778;28;20564;-80
2024/03/23 18:54:33;;;;;;;3.00;1.10;;;;;;;;;;10460689;28;20028;-79
2024/03/23 18:59:34;;;;;;;1.92;1.00;;;;;;;;;;10460416;28;20035;-82
2024/03/23 19:04:35;;;;;;;1.13;0.80;;;;;;;;;;10461237;28;20063;-81
2024/03/23 19:09:36;;;;;;;3.63;1.75;;;;;;;;;;10463127;28;20124;-80
2024/03/23 19:14:39;;;;;;;2.00;1.20;;;;;;;;;;10459762;28;20465;-81
2024/03/23 19:19:40;;;;;;;1.92;1.05;;;;;;;;;;10459124;28;20021;-80
2024/03/23 19:24:41;;;;;;;2.45;1.45;;;;;;;;;;10458426;28;20052;-80
2024/03/23 19:29:42;;;;;;;2.90;1.80;;;;;;;;;;10459135;28;20444;-81
2024/03/23 19:34:44;;;;;;;1.85;1.05;;;;;;;;;;10458702;28;20029;-80
2024/03/23 19:39:45;;;;;;;2.60;1.17;;;;;;;;;;10458385;28;20025;-80
2024/03/23 19:44:47;;;;;;;2.53;1.38;;;;;;;;;;10457824;28;20029;-79
2024/03/23 19:49:48;;;;;;;2.13;1.40;;;;;;;;;;10475285;28;20025;-80
2024/03/23 19:54:49;;;;;;;2.25;1.10;;;;;;;;;;10467725;28;20111;-81
2024/03/23 19:59:50;;;;;;;2.58;1.55;;;;;;;;;;10465435;28;20461;-81
2024/03/23 20:04:51;;;;;;;1.90;1.23;;;;;;;;;;10465539;28;20116;-80
